sensor_id;sensor_type;location;lat;lon;timestamp;pressure;altitude;pressure_sealevel;temperature;humidity
77778;BME280;66966;-34.746;138.604;2023-08-07T00:02:01;103344.48;;;11.33;42.89
77778;BME280;66966;-34.746;138.604;2023-08-07T00:04:27;103342.49;;;12.03;42.49
77778;BME280;66966;-34.746;138.604;2023-08-07T00:06:53;103341.39;;;11.94;42.16
77778;BME280;66966;-34.746;138.604;2023-08-07T00:09:19;103346.31;;;11.79;41.68
77778;BME280;66966;-34.746;138.604;2023-08-07T00:11:44;103349.27;;;11.81;41.45
77778;BME280;66966;-34.746;138.604;2023-08-07T00:14:10;103351.28;;;11.82;41.31
77778;BME280;66966;-34.746;138.604;2023-08-07T00:16:36;103352.21;;;11.91;41.19
77778;BME280;66966;-34.746;138.604;2023-08-07T00:19:03;103350.21;;;12.19;41.11
77778;BME280;66966;-34.746;138.604;2023-08-07T00:21:28;103343.63;;;12.21;41.07
77778;BME280;66966;-34.746;138.604;2023-08-07T00:23:53;103341.35;;;12.28;41.22
77778;BME280;66966;-34.746;138.604;2023-08-07T00:26:19;103341.44;;;12.43;41.16
77778;BME280;66966;-34.746;138.604;2023-08-07T00:28:45;103343.10;;;12.54;41.22
77778;BME280;66966;-34.746;138.604;2023-08-07T00:31:10;103342.81;;;12.61;41.08
77778;BME280;66966;-34.746;138.604;2023-08-07T00:33:36;103341.20;;;12.44;40.96
77778;BME280;66966;-34.746;138.604;2023-08-07T00:36:02;103336.17;;;12.28;41.30
77778;BME280;66966;-34.746;138.604;2023-08-07T00:38:28;103332.64;;;12.62;41.26
77778;BME280;66966;-34.746;138.604;2023-08-07T00:40:54;103330.63;;;12.54;40.67
77778;BME280;66966;-34.746;138.604;2023-08-07T00:43:19;103333.92;;;13.09;40.96
77778;BME280;66966;-34.746;138.604;2023-08-07T00:45:47;103332.57;;;12.73;41.28
77778;BME280;66966;-34.746;138.604;2023-08-07T00:48:11;103330.20;;;12.87;41.36
77778;BME280;66966;-34.746;138.604;2023-08-07T00:50:37;103331.86;;;12.88;40.90
77778;BME280;66966;-34.746;138.604;2023-08-07T00:53:02;103330.76;;;12.90;40.50
77778;BME280;66966;-34.746;138.604;2023-08-07T00:55:28;103326.92;;;12.95;40.77
77778;BME280;66966;-34.746;138.604;2023-08-07T00:57:54;103323.30;;;13.09;40.56
77778;BME280;66966;-34.746;138.604;2023-08-07T01:00:19;103317.61;;;13.20;40.60
77778;BME280;66966;-34.746;138.604;2023-08-07T01:02:45;103315.21;;;13.06;40.29
77778;BME280;66966;-34.746;138.604;2023-08-07T01:05:11;103316.63;;;13.35;39.82
77778;BME280;66966;-34.746;138.604;2023-08-07T01:07:37;103317.20;;;13.43;39.38
77778;BME280;66966;-34.746;138.604;2023-08-07T01:10:03;103318.29;;;13.54;39.47
77778;BME280;66966;-34.746;138.604;2023-08-07T01:12:32;103314.48;;;13.56;39.45
77778;BME280;66966;-34.746;138.604;2023-08-07T01:14:58;103315.29;;;13.24;39.67
77778;BME280;66966;-34.746;138.604;2023-08-07T01:17:22;103313.95;;;13.83;39.44
77778;BME280;66966;-34.746;138.604;2023-08-07T01:19:46;103311.13;;;13.68;39.13
77778;BME280;66966;-34.746;138.604;2023-08-07T01:22:12;103306.81;;;13.69;38.97
77778;BME280;66966;-34.746;138.604;2023-08-07T01:24:38;103303.08;;;13.46;39.25
77778;BME280;66966;-34.746;138.604;2023-08-07T01:27:10;103298.12;;;13.75;38.84
77778;BME280;66966;-34.746;138.604;2023-08-07T01:29:34;103296.57;;;13.81;39.40
77778;BME280;66966;-34.746;138.604;2023-08-07T01:31:54;103294.59;;;13.85;39.24
77778;BME280;66966;-34.746;138.604;2023-08-07T01:34:21;103297.74;;;14.02;39.48
77778;BME280;66966;-34.746;138.604;2023-08-07T01:36:46;103301.82;;;14.12;39.28
77778;BME280;66966;-34.746;138.604;2023-08-07T01:39:11;103293.93;;;14.05;38.89
77778;BME280;66966;-34.746;138.604;2023-08-07T01:41:40;103289.66;;;13.75;38.71
77778;BME280;66966;-34.746;138.604;2023-08-07T01:44:02;103283.02;;;13.72;38.87
77778;BME280;66966;-34.746;138.604;2023-08-07T01:46:28;103272.19;;;13.66;39.51
77778;BME280;66966;-34.746;138.604;2023-08-07T01:48:54;103272.48;;;14.30;39.83
77778;BME280;66966;-34.746;138.604;2023-08-07T01:51:19;103267.45;;;13.97;39.43
77778;BME280;66966;-34.746;138.604;2023-08-07T01:53:45;103270.80;;;14.15;39.29
77778;BME280;66966;-34.746;138.604;2023-08-07T01:56:11;103269.33;;;13.96;39.34
77778;BME280;66966;-34.746;138.604;2023-08-07T01:58:37;103270.55;;;14.04;39.08
77778;BME280;66966;-34.746;138.604;2023-08-07T02:01:02;103265.67;;;14.17;38.97
77778;BME280;66966;-34.746;138.604;2023-08-07T02:03:28;103259.71;;;14.52;38.38
77778;BME280;66966;-34.746;138.604;2023-08-07T02:05:54;103257.38;;;14.37;38.77
77778;BME280;66966;-34.746;138.604;2023-08-07T02:08:19;103253.93;;;14.47;38.57
77778;BME280;66966;-34.746;138.604;2023-08-07T02:10:45;103249.39;;;14.65;38.03
77778;BME280;66966;-34.746;138.604;2023-08-07T02:13:10;103244.94;;;14.43;38.45
77778;BME280;66966;-34.746;138.604;2023-08-07T02:15:36;103237.52;;;14.56;37.99
77778;BME280;66966;-34.746;138.604;2023-08-07T02:18:02;103228.37;;;14.72;38.70
77778;BME280;66966;-34.746;138.604;2023-08-07T02:20:28;103224.15;;;13.96;38.00
77778;BME280;66966;-34.746;138.604;2023-08-07T02:22:55;103224.70;;;14.49;35.44
77778;BME280;66966;-34.746;138.604;2023-08-07T02:25:20;103223.34;;;15.10;33.84
77778;BME280;66966;-34.746;138.604;2023-08-07T02:27:45;103222.85;;;15.53;33.73
77778;BME280;66966;-34.746;138.604;2023-08-07T02:30:12;103222.60;;;15.95;33.74
77778;BME280;66966;-34.746;138.604;2023-08-07T02:32:37;103214.99;;;16.73;32.94
77778;BME280;66966;-34.746;138.604;2023-08-07T02:35:02;103214.78;;;16.51;34.34
77778;BME280;66966;-34.746;138.604;2023-08-07T02:37:28;103207.26;;;16.25;35.80
77778;BME280;66966;-34.746;138.604;2023-08-07T02:39:53;103204.80;;;16.22;35.60
77778;BME280;66966;-34.746;138.604;2023-08-07T02:42:18;103197.41;;;15.96;35.04
77778;BME280;66966;-34.746;138.604;2023-08-07T02:44:44;103195.70;;;15.76;35.58
77778;BME280;66966;-34.746;138.604;2023-08-07T02:47:10;103191.50;;;15.99;36.55
77778;BME280;66966;-34.746;138.604;2023-08-07T02:49:36;103190.07;;;16.07;36.50
77778;BME280;66966;-34.746;138.604;2023-08-07T02:52:01;103188.89;;;16.19;36.21
77778;BME280;66966;-34.746;138.604;2023-08-07T02:54:27;103186.45;;;15.76;35.54
77778;BME280;66966;-34.746;138.604;2023-08-07T02:56:52;103180.36;;;16.34;35.65
77778;BME280;66966;-34.746;138.604;2023-08-07T02:59:18;103175.72;;;15.91;35.49
77778;BME280;66966;-34.746;138.604;2023-08-07T03:01:44;103176.33;;;15.94;34.93
77778;BME280;66966;-34.746;138.604;2023-08-07T03:04:09;103169.49;;;16.17;34.68
77778;BME280;66966;-34.746;138.604;2023-08-07T03:06:35;103164.05;;;16.20;35.98
77778;BME280;66966;-34.746;138.604;2023-08-07T03:09:00;103162.47;;;16.59;35.04
77778;BME280;66966;-34.746;138.604;2023-08-07T03:11:26;103162.64;;;16.17;35.97
77778;BME280;66966;-34.746;138.604;2023-08-07T03:13:52;103153.06;;;16.35;35.39
77778;BME280;66966;-34.746;138.604;2023-08-07T03:16:17;103143.29;;;16.73;35.39
77778;BME280;66966;-34.746;138.604;2023-08-07T03:18:43;103137.67;;;16.81;34.19
77778;BME280;66966;-34.746;138.604;2023-08-07T03:21:08;103131.74;;;16.68;35.31
77778;BME280;66966;-34.746;138.604;2023-08-07T03:23:34;103123.57;;;16.84;33.98
77778;BME280;66966;-34.746;138.604;2023-08-07T03:26:04;103117.77;;;16.43;34.09
77778;BME280;66966;-34.746;138.604;2023-08-07T03:28:25;103110.65;;;16.98;34.18
77778;BME280;66966;-34.746;138.604;2023-08-07T03:30:51;103108.34;;;17.17;34.85
77778;BME280;66966;-34.746;138.604;2023-08-07T03:33:16;103103.89;;;17.31;34.19
77778;BME280;66966;-34.746;138.604;2023-08-07T03:35:42;103103.50;;;17.28;34.05
77778;BME280;66966;-34.746;138.604;2023-08-07T03:38:08;103100.69;;;17.09;33.52
77778;BME280;66966;-34.746;138.604;2023-08-07T03:40:34;103093.96;;;17.19;33.72
77778;BME280;66966;-34.746;138.604;2023-08-07T03:42:59;103091.53;;;17.85;33.74
77778;BME280;66966;-34.746;138.604;2023-08-07T03:45:25;103088.01;;;17.52;33.62
77778;BME280;66966;-34.746;138.604;2023-08-07T03:47:50;103082.61;;;17.69;33.67
77778;BME280;66966;-34.746;138.604;2023-08-07T03:50:15;103081.36;;;17.88;33.51
77778;BME280;66966;-34.746;138.604;2023-08-07T03:52:41;103077.80;;;17.85;31.54
77778;BME280;66966;-34.746;138.604;2023-08-07T03:55:07;103074.36;;;17.94;32.23
77778;BME280;66966;-34.746;138.604;2023-08-07T03:57:32;103073.35;;;17.96;31.80
77778;BME280;66966;-34.746;138.604;2023-08-07T03:59:58;103071.95;;;17.59;32.54
77778;BME280;66966;-34.746;138.604;2023-08-07T04:02:23;103071.80;;;18.27;33.10
77778;BME280;66966;-34.746;138.604;2023-08-07T04:04:49;103070.37;;;18.24;32.87
77778;BME280;66966;-34.746;138.604;2023-08-07T04:07:14;103067.72;;;18.38;31.28
77778;BME280;66966;-34.746;138.604;2023-08-07T04:09:40;103061.22;;;18.63;31.97
77778;BME280;66966;-34.746;138.604;2023-08-07T04:12:06;103070.61;;;18.17;31.69
77778;BME280;66966;-34.746;138.604;2023-08-07T04:14:31;103069.74;;;18.49;30.98
77778;BME280;66966;-34.746;138.604;2023-08-07T04:16:56;103064.58;;;18.64;31.92
77778;BME280;66966;-34.746;138.604;2023-08-07T04:19:22;103061.72;;;18.58;31.56
77778;BME280;66966;-34.746;138.604;2023-08-07T04:21:48;103055.73;;;18.95;31.07
77778;BME280;66966;-34.746;138.604;2023-08-07T04:24:13;103053.74;;;18.64;29.57
77778;BME280;66966;-34.746;138.604;2023-08-07T04:26:38;103054.39;;;18.76;30.39
77778;BME280;66966;-34.746;138.604;2023-08-07T04:29:05;103054.51;;;18.69;30.37
77778;BME280;66966;-34.746;138.604;2023-08-07T04:31:29;103056.49;;;18.69;30.67
77778;BME280;66966;-34.746;138.604;2023-08-07T04:33:55;103053.50;;;18.56;30.69
77778;BME280;66966;-34.746;138.604;2023-08-07T04:36:20;103051.22;;;18.89;30.88
77778;BME280;66966;-34.746;138.604;2023-08-07T04:38:46;103045.51;;;18.79;30.52
77778;BME280;66966;-34.746;138.604;2023-08-07T04:41:12;103042.59;;;18.99;30.44
77778;BME280;66966;-34.746;138.604;2023-08-07T04:43:37;103039.63;;;19.34;30.56
77778;BME280;66966;-34.746;138.604;2023-08-07T04:46:02;103035.79;;;18.84;30.38
77778;BME280;66966;-34.746;138.604;2023-08-07T04:48:28;103033.43;;;19.30;30.38
77778;BME280;66966;-34.746;138.604;2023-08-07T04:50:53;103034.76;;;19.37;27.66
77778;BME280;66966;-34.746;138.604;2023-08-07T04:53:18;103035.07;;;19.49;27.92
77778;BME280;66966;-34.746;138.604;2023-08-07T04:55:44;103030.26;;;19.29;26.77
77778;BME280;66966;-34.746;138.604;2023-08-07T04:58:10;103028.72;;;19.25;26.45
77778;BME280;66966;-34.746;138.604;2023-08-07T05:00:35;103027.00;;;18.82;26.23
77778;BME280;66966;-34.746;138.604;2023-08-07T05:03:00;103024.29;;;18.92;26.28
77778;BME280;66966;-34.746;138.604;2023-08-07T05:05:25;103033.03;;;18.65;26.85
77778;BME280;66966;-34.746;138.604;2023-08-07T05:07:51;103034.70;;;18.71;29.86
77778;BME280;66966;-34.746;138.604;2023-08-07T05:10:17;103034.10;;;18.54;30.23
77778;BME280;66966;-34.746;138.604;2023-08-07T05:12:42;103032.89;;;18.34;30.34
77778;BME280;66966;-34.746;138.604;2023-08-07T05:15:08;103030.07;;;18.58;30.43
77778;BME280;66966;-34.746;138.604;2023-08-07T05:17:33;103034.49;;;18.48;30.49
77778;BME280;66966;-34.746;138.604;2023-08-07T05:19:58;103034.90;;;17.72;30.51
77778;BME280;66966;-34.746;138.604;2023-08-07T05:22:24;103032.42;;;18.58;30.47
77778;BME280;66966;-34.746;138.604;2023-08-07T05:24:49;103034.89;;;18.33;30.91
77778;BME280;66966;-34.746;138.604;2023-08-07T05:27:15;103037.35;;;18.70;31.49
77778;BME280;66966;-34.746;138.604;2023-08-07T05:29:40;103037.37;;;18.88;31.41
77778;BME280;66966;-34.746;138.604;2023-08-07T05:32:06;103033.07;;;19.00;30.33
77778;BME280;66966;-34.746;138.604;2023-08-07T05:34:31;103036.31;;;19.43;30.42
77778;BME280;66966;-34.746;138.604;2023-08-07T05:36:56;103040.42;;;19.25;29.93
77778;BME280;66966;-34.746;138.604;2023-08-07T05:39:22;103035.29;;;19.32;29.79
77778;BME280;66966;-34.746;138.604;2023-08-07T05:41:47;103037.26;;;19.28;29.92
77778;BME280;66966;-34.746;138.604;2023-08-07T05:44:13;103041.08;;;19.07;30.13
77778;BME280;66966;-34.746;138.604;2023-08-07T05:46:38;103041.04;;;19.14;29.49
77778;BME280;66966;-34.746;138.604;2023-08-07T05:49:03;103043.44;;;19.46;30.19
77778;BME280;66966;-34.746;138.604;2023-08-07T05:51:29;103044.00;;;19.40;29.43
77778;BME280;66966;-34.746;138.604;2023-08-07T05:53:54;103043.51;;;19.58;29.72
77778;BME280;66966;-34.746;138.604;2023-08-07T05:56:20;103044.72;;;19.42;29.66
77778;BME280;66966;-34.746;138.604;2023-08-07T05:58:45;103042.33;;;19.31;29.10
77778;BME280;66966;-34.746;138.604;2023-08-07T06:01:11;103045.72;;;19.63;29.15
77778;BME280;66966;-34.746;138.604;2023-08-07T06:03:36;103046.68;;;19.64;29.49
77778;BME280;66966;-34.746;138.604;2023-08-07T06:06:02;103041.08;;;19.26;29.20
77778;BME280;66966;-34.746;138.604;2023-08-07T06:08:27;103041.87;;;19.54;29.32
77778;BME280;66966;-34.746;138.604;2023-08-07T06:10:53;103038.47;;;19.74;29.09
77778;BME280;66966;-34.746;138.604;2023-08-07T06:13:18;103039.38;;;19.83;28.87
77778;BME280;66966;-34.746;138.604;2023-08-07T06:15:44;103039.95;;;19.38;28.90
77778;BME280;66966;-34.746;138.604;2023-08-07T06:18:10;103040.12;;;19.33;28.88
77778;BME280;66966;-34.746;138.604;2023-08-07T06:20:35;103040.55;;;19.10;29.19
77778;BME280;66966;-34.746;138.604;2023-08-07T06:23:00;103041.43;;;19.35;29.15
77778;BME280;66966;-34.746;138.604;2023-08-07T06:25:25;103037.71;;;19.76;29.17
77778;BME280;66966;-34.746;138.604;2023-08-07T06:27:51;103037.23;;;19.54;29.31
77778;BME280;66966;-34.746;138.604;2023-08-07T06:30:17;103034.58;;;19.48;29.05
77778;BME280;66966;-34.746;138.604;2023-08-07T06:32:42;103032.68;;;19.20;28.63
77778;BME280;66966;-34.746;138.604;2023-08-07T06:35:08;103037.26;;;19.22;29.28
77778;BME280;66966;-34.746;138.604;2023-08-07T06:37:33;103037.99;;;19.03;29.03
77778;BME280;66966;-34.746;138.604;2023-08-07T06:39:58;103038.09;;;18.32;29.34
77778;BME280;66966;-34.746;138.604;2023-08-07T06:42:24;103038.05;;;18.70;29.92
77778;BME280;66966;-34.746;138.604;2023-08-07T06:44:49;103040.55;;;18.99;29.90
77778;BME280;66966;-34.746;138.604;2023-08-07T06:47:15;103045.71;;;18.83;30.09
77778;BME280;66966;-34.746;138.604;2023-08-07T06:49:40;103046.38;;;19.03;29.84
77778;BME280;66966;-34.746;138.604;2023-08-07T06:52:06;103043.42;;;18.68;29.49
77778;BME280;66966;-34.746;138.604;2023-08-07T06:54:31;103040.83;;;18.44;29.59
77778;BME280;66966;-34.746;138.604;2023-08-07T06:56:57;103043.89;;;18.44;29.58
77778;BME280;66966;-34.746;138.604;2023-08-07T06:59:22;103045.65;;;18.26;30.12
77778;BME280;66966;-34.746;138.604;2023-08-07T07:01:48;103049.75;;;18.35;30.41
77778;BME280;66966;-34.746;138.604;2023-08-07T07:04:13;103050.59;;;18.01;30.56
77778;BME280;66966;-34.746;138.604;2023-08-07T07:06:39;103051.11;;;18.15;30.56
77778;BME280;66966;-34.746;138.604;2023-08-07T07:09:04;103052.89;;;17.87;30.71
77778;BME280;66966;-34.746;138.604;2023-08-07T07:11:30;103053.65;;;17.93;30.74
77778;BME280;66966;-34.746;138.604;2023-08-07T07:13:55;103054.28;;;17.76;30.82
77778;BME280;66966;-34.746;138.604;2023-08-07T07:16:21;103059.72;;;17.43;30.86
77778;BME280;66966;-34.746;138.604;2023-08-07T07:18:47;103058.92;;;17.40;31.43
77778;BME280;66966;-34.746;138.604;2023-08-07T07:21:12;103059.33;;;17.04;31.47
77778;BME280;66966;-34.746;138.604;2023-08-07T07:23:38;103062.30;;;16.96;31.68
77778;BME280;66966;-34.746;138.604;2023-08-07T07:26:03;103059.78;;;17.42;31.88
77778;BME280;66966;-34.746;138.604;2023-08-07T07:28:29;103058.98;;;17.24;31.98
77778;BME280;66966;-34.746;138.604;2023-08-07T07:30:55;103061.22;;;17.11;32.20
77778;BME280;66966;-34.746;138.604;2023-08-07T07:33:20;103061.00;;;17.05;32.37
77778;BME280;66966;-34.746;138.604;2023-08-07T07:35:46;103063.57;;;16.96;32.47
77778;BME280;66966;-34.746;138.604;2023-08-07T07:38:11;103065.34;;;16.81;32.51
77778;BME280;66966;-34.746;138.604;2023-08-07T07:40:37;103067.54;;;16.99;32.64
77778;BME280;66966;-34.746;138.604;2023-08-07T07:43:03;103068.43;;;16.70;32.74
77778;BME280;66966;-34.746;138.604;2023-08-07T07:45:28;103070.61;;;16.90;32.91
77778;BME280;66966;-34.746;138.604;2023-08-07T07:47:54;103071.41;;;16.47;33.15
77778;BME280;66966;-34.746;138.604;2023-08-07T07:50:19;103068.15;;;16.39;33.34
77778;BME280;66966;-34.746;138.604;2023-08-07T07:52:45;103070.57;;;16.38;33.41
77778;BME280;66966;-34.746;138.604;2023-08-07T07:55:11;103069.34;;;16.56;33.47
77778;BME280;66966;-34.746;138.604;2023-08-07T07:57:36;103065.54;;;16.47;33.49
77778;BME280;66966;-34.746;138.604;2023-08-07T08:00:01;103064.75;;;16.16;33.62
77778;BME280;66966;-34.746;138.604;2023-08-07T08:02:27;103066.83;;;16.27;33.78
77778;BME280;66966;-34.746;138.604;2023-08-07T08:04:52;103064.24;;;15.94;33.87
77778;BME280;66966;-34.746;138.604;2023-08-07T08:07:19;103063.97;;;15.85;33.87
77778;BME280;66966;-34.746;138.604;2023-08-07T08:09:43;103058.29;;;16.27;34.00
77778;BME280;66966;-34.746;138.604;2023-08-07T08:12:10;103057.68;;;16.14;34.09
77778;BME280;66966;-34.746;138.604;2023-08-07T08:14:35;103055.75;;;16.02;34.09
77778;BME280;66966;-34.746;138.604;2023-08-07T08:17:00;103057.42;;;15.65;34.12
77778;BME280;66966;-34.746;138.604;2023-08-07T08:19:26;103058.38;;;15.56;34.10
77778;BME280;66966;-34.746;138.604;2023-08-07T08:21:51;103057.73;;;15.70;34.15
77778;BME280;66966;-34.746;138.604;2023-08-07T08:24:17;103059.03;;;15.57;34.20
77778;BME280;66966;-34.746;138.604;2023-08-07T08:26:43;103062.71;;;15.41;34.14
77778;BME280;66966;-34.746;138.604;2023-08-07T08:29:08;103065.85;;;15.23;34.32
77778;BME280;66966;-34.746;138.604;2023-08-07T08:31:34;103071.50;;;15.09;34.50
77778;BME280;66966;-34.746;138.604;2023-08-07T08:34:00;103076.50;;;14.52;34.59
77778;BME280;66966;-34.746;138.604;2023-08-07T08:36:25;103078.53;;;15.32;34.71
77778;BME280;66966;-34.746;138.604;2023-08-07T08:38:51;103081.35;;;14.94;34.73
77778;BME280;66966;-34.746;138.604;2023-08-07T08:41:17;103080.72;;;14.79;34.93
77778;BME280;66966;-34.746;138.604;2023-08-07T08:43:45;103080.27;;;14.92;35.29
77778;BME280;66966;-34.746;138.604;2023-08-07T08:46:09;103082.15;;;14.84;35.20
77778;BME280;66966;-34.746;138.604;2023-08-07T08:48:36;103086.10;;;14.76;35.08
77778;BME280;66966;-34.746;138.604;2023-08-07T08:50:59;103088.37;;;14.61;35.30
77778;BME280;66966;-34.746;138.604;2023-08-07T08:53:25;103088.52;;;14.44;35.43
77778;BME280;66966;-34.746;138.604;2023-08-07T08:55:51;103083.89;;;14.32;35.72
77778;BME280;66966;-34.746;138.604;2023-08-07T08:58:17;103086.28;;;14.25;35.68
77778;BME280;66966;-34.746;138.604;2023-08-07T09:00:42;103089.63;;;14.36;35.81
77778;BME280;66966;-34.746;138.604;2023-08-07T09:03:08;103092.91;;;14.08;35.90
77778;BME280;66966;-34.746;138.604;2023-08-07T09:05:33;103102.92;;;14.26;36.02
77778;BME280;66966;-34.746;138.604;2023-08-07T09:08:00;103098.44;;;13.50;36.07
77778;BME280;66966;-34.746;138.604;2023-08-07T09:10:25;103100.59;;;13.92;36.13
77778;BME280;66966;-34.746;138.604;2023-08-07T09:12:57;103103.62;;;14.06;36.16
77778;BME280;66966;-34.746;138.604;2023-08-07T09:15:17;103109.79;;;13.76;36.25
77778;BME280;66966;-34.746;138.604;2023-08-07T09:17:42;103106.17;;;13.70;36.23
77778;BME280;66966;-34.746;138.604;2023-08-07T09:20:09;103104.40;;;13.57;36.28
77778;BME280;66966;-34.746;138.604;2023-08-07T09:22:32;103101.28;;;13.77;36.53
77778;BME280;66966;-34.746;138.604;2023-08-07T09:24:58;103099.02;;;13.46;36.46
77778;BME280;66966;-34.746;138.604;2023-08-07T09:27:24;103107.41;;;13.39;36.45
77778;BME280;66966;-34.746;138.604;2023-08-07T09:29:49;103113.78;;;13.51;36.52
77778;BME280;66966;-34.746;138.604;2023-08-07T09:32:15;103112.60;;;13.15;36.62
77778;BME280;66966;-34.746;138.604;2023-08-07T09:34:40;103111.31;;;13.53;36.60
77778;BME280;66966;-34.746;138.604;2023-08-07T09:37:06;103113.53;;;13.19;36.62
77778;BME280;66966;-34.746;138.604;2023-08-07T09:39:31;103117.75;;;13.07;36.71
77778;BME280;66966;-34.746;138.604;2023-08-07T09:41:57;103115.93;;;13.20;36.88
77778;BME280;66966;-34.746;138.604;2023-08-07T09:44:24;103114.58;;;13.12;36.97
77778;BME280;66966;-34.746;138.604;2023-08-07T09:46:49;103116.17;;;13.05;37.06
77778;BME280;66966;-34.746;138.604;2023-08-07T09:49:14;103115.45;;;12.99;37.11
77778;BME280;66966;-34.746;138.604;2023-08-07T09:51:44;103114.08;;;12.92;37.24
77778;BME280;66966;-34.746;138.604;2023-08-07T09:54:05;103112.05;;;12.61;37.31
77778;BME280;66966;-34.746;138.604;2023-08-07T09:56:30;103108.34;;;12.78;37.34
77778;BME280;66966;-34.746;138.604;2023-08-07T09:58:56;103107.70;;;12.67;37.42
77778;BME280;66966;-34.746;138.604;2023-08-07T10:01:22;103107.82;;;12.60;37.54
77778;BME280;66966;-34.746;138.604;2023-08-07T10:03:48;103105.86;;;12.54;37.69
77778;BME280;66966;-34.746;138.604;2023-08-07T10:06:13;103102.81;;;12.47;37.81
77778;BME280;66966;-34.746;138.604;2023-08-07T10:08:39;103101.91;;;12.68;37.82
77778;BME280;66966;-34.746;138.604;2023-08-07T10:11:04;103101.88;;;12.37;37.92
77778;BME280;66966;-34.746;138.604;2023-08-07T10:13:30;103102.56;;;12.75;38.06
77778;BME280;66966;-34.746;138.604;2023-08-07T10:15:55;103102.89;;;12.23;38.08
77778;BME280;66966;-34.746;138.604;2023-08-07T10:18:20;103106.86;;;11.31;37.80
77778;BME280;66966;-34.746;138.604;2023-08-07T10:20:45;103107.39;;;12.82;37.16
77778;BME280;66966;-34.746;138.604;2023-08-07T10:23:12;103112.67;;;12.56;37.48
77778;BME280;66966;-34.746;138.604;2023-08-07T10:25:37;103116.57;;;12.37;37.61
77778;BME280;66966;-34.746;138.604;2023-08-07T10:28:03;103115.75;;;12.22;37.63
77778;BME280;66966;-34.746;138.604;2023-08-07T10:30:28;103115.44;;;12.32;37.69
77778;BME280;66966;-34.746;138.604;2023-08-07T10:32:53;103115.45;;;12.42;37.93
77778;BME280;66966;-34.746;138.604;2023-08-07T10:35:25;103113.11;;;12.29;38.06
77778;BME280;66966;-34.746;138.604;2023-08-07T10:37:44;103108.64;;;11.94;38.13
77778;BME280;66966;-34.746;138.604;2023-08-07T10:40:11;103102.98;;;12.10;38.39
77778;BME280;66966;-34.746;138.604;2023-08-07T10:45:02;103098.60;;;12.06;38.24
77778;BME280;66966;-34.746;138.604;2023-08-07T10:47:33;103098.77;;;11.74;38.19
77778;BME280;66966;-34.746;138.604;2023-08-07T10:49:52;103096.80;;;11.96;38.13
77778;BME280;66966;-34.746;138.604;2023-08-07T10:52:17;103097.26;;;11.62;38.07
77778;BME280;66966;-34.746;138.604;2023-08-07T10:54:47;103095.89;;;11.56;38.19
77778;BME280;66966;-34.746;138.604;2023-08-07T10:57:11;103095.32;;;11.79;38.14
77778;BME280;66966;-34.746;138.604;2023-08-07T10:59:38;103098.45;;;11.70;38.09
77778;BME280;66966;-34.746;138.604;2023-08-07T11:02:00;103099.93;;;11.34;38.12
77778;BME280;66966;-34.746;138.604;2023-08-07T11:04:26;103097.38;;;11.75;38.08
77778;BME280;66966;-34.746;138.604;2023-08-07T11:06:52;103098.29;;;11.72;38.15
77778;BME280;66966;-34.746;138.604;2023-08-07T11:09:18;103095.72;;;11.45;38.18
77778;BME280;66966;-34.746;138.604;2023-08-07T11:11:45;103095.33;;;11.72;37.99
77778;BME280;66966;-34.746;138.604;2023-08-07T11:14:09;103098.62;;;11.47;37.91
77778;BME280;66966;-34.746;138.604;2023-08-07T11:16:35;103101.16;;;11.46;37.91
77778;BME280;66966;-34.746;138.604;2023-08-07T11:18:59;103101.77;;;11.69;37.85
77778;BME280;66966;-34.746;138.604;2023-08-07T11:21:26;103100.17;;;11.43;37.77
77778;BME280;66966;-34.746;138.604;2023-08-07T11:23:51;103100.81;;;11.40;37.69
77778;BME280;66966;-34.746;138.604;2023-08-07T11:26:17;103095.84;;;11.64;37.60
77778;BME280;66966;-34.746;138.604;2023-08-07T11:28:43;103092.88;;;11.63;37.61
77778;BME280;66966;-34.746;138.604;2023-08-07T11:31:08;103098.21;;;11.40;37.54
77778;BME280;66966;-34.746;138.604;2023-08-07T11:33:35;103097.83;;;11.41;37.46
77778;BME280;66966;-34.746;138.604;2023-08-07T11:36:00;103095.40;;;10.92;37.44
77778;BME280;66966;-34.746;138.604;2023-08-07T11:38:32;103100.86;;;11.40;37.44
77778;BME280;66966;-34.746;138.604;2023-08-07T11:40:56;103101.96;;;11.62;37.32
77778;BME280;66966;-34.746;138.604;2023-08-07T11:43:18;103100.49;;;11.37;37.31
77778;BME280;66966;-34.746;138.604;2023-08-07T11:45:44;103101.05;;;11.57;37.27
77778;BME280;66966;-34.746;138.604;2023-08-07T11:48:11;103098.42;;;11.30;37.25
77778;BME280;66966;-34.746;138.604;2023-08-07T11:50:35;103101.12;;;11.26;37.27
77778;BME280;66966;-34.746;138.604;2023-08-07T11:53:01;103108.12;;;11.20;37.25
77778;BME280;66966;-34.746;138.604;2023-08-07T11:55:29;103107.64;;;11.35;37.30
77778;BME280;66966;-34.746;138.604;2023-08-07T11:57:55;103108.39;;;11.27;37.41
77778;BME280;66966;-34.746;138.604;2023-08-07T12:00:18;103108.16;;;11.19;37.52
77778;BME280;66966;-34.746;138.604;2023-08-07T12:02:45;103110.90;;;11.12;37.62
77778;BME280;66966;-34.746;138.604;2023-08-07T12:05:11;103111.65;;;11.10;37.57
77778;BME280;66966;-34.746;138.604;2023-08-07T12:07:36;103111.78;;;11.27;37.57
77778;BME280;66966;-34.746;138.604;2023-08-07T12:10:04;103112.94;;;10.79;37.66
77778;BME280;66966;-34.746;138.604;2023-08-07T12:12:28;103116.97;;;11.24;37.65
77778;BME280;66966;-34.746;138.604;2023-08-07T12:14:55;103122.57;;;11.20;37.66